Time;durP1;ratioP1;P1;durP2;ratioP2;P2;SDS_P1;SDS_P2;PMS_P1;PMS_P2;Temp;Humidity;BMP_temperature;BMP_pressure;BME280_temperature;BME280_humidity;BME280_pressure;Samples;Min_cycle;Max_cycle;Signal;HPM_P1;HPM_P2
2021/09/12 00:01:37;;;;;;;3.88;3.55;;;17.50;99.90;;;;;;5076977;28;20199;-71
2021/09/12 00:04:04;;;;;;;3.60;3.28;;;17.40;99.90;;;;;;5076930;28;20205;-71
2021/09/12 00:06:31;;;;;;;3.70;3.40;;;17.30;99.90;;;;;;5076477;28;20226;-71
2021/09/12 00:08:58;;;;;;;3.75;2.92;;;17.20;99.90;;;;;;5076821;28;20310;-71
2021/09/12 00:11:25;;;;;;;3.20;2.90;;;17.30;99.90;;;;;;5076514;28;20261;-71
2021/09/12 00:13:51;;;;;;;3.47;3.17;;;17.30;99.90;;;;;;5076739;28;20207;-71
2021/09/12 00:16:19;;;;;;;3.83;2.92;;;17.30;99.90;;;;;;5076296;28;20788;-71
2021/09/12 00:18:47;;;;;;;3.28;2.97;;;17.30;99.90;;;;;;5076632;28;20605;-70
2021/09/12 00:21:14;;;;;;;3.90;2.90;;;17.30;99.90;;;;;;5076562;28;20226;-71
2021/09/12 00:23:41;;;;;;;3.55;3.25;;;17.30;99.90;;;;;;5076610;28;20658;-71
2021/09/12 00:26:08;;;;;;;3.60;3.30;;;17.30;99.90;;;;;;5076277;28;20229;-70
2021/09/12 00:28:34;;;;;;;3.50;3.20;;;17.30;99.90;;;;;;5076552;28;20290;-70
2021/09/12 00:31:01;;;;;;;3.20;2.90;;;17.30;99.90;;;;;;5076381;28;20645;-71
2021/09/12 00:33:31;;;;;;;4.32;3.20;;;17.30;99.90;;;;;;5076316;28;20209;-71
2021/09/12 00:35:59;;;;;;;3.30;3.00;;;17.20;99.90;;;;;;5076323;28;20258;-71
2021/09/12 00:38:26;;;;;;;3.50;3.20;;;17.30;99.90;;;;;;5076250;28;20217;-71
2021/09/12 00:40:57;;;;;;;4.68;3.50;;;17.30;99.90;;;;;;5076255;28;20564;-71
2021/09/12 00:43:24;;;;;;;3.10;2.80;;;17.30;99.90;;;;;;5076122;28;20312;-71
2021/09/12 00:45:53;;;;;;;3.20;2.90;;;17.30;99.90;;;;;;5076002;28;20230;-70
2021/09/12 00:48:20;;;;;;;4.90;3.63;;;17.30;99.90;;;;;;5076375;28;20206;-71
2021/09/12 00:50:47;;;;;;;3.80;3.50;;;17.20;99.90;;;;;;5076024;28;20321;-70
2021/09/12 00:53:17;;;;;;;4.40;3.60;;;17.10;99.90;;;;;;5076011;28;20309;-70
2021/09/12 00:55:45;;;;;;;3.13;2.72;;;17.10;99.90;;;;;;5075630;28;20222;-70
2021/09/12 00:58:14;;;;;;;3.30;3.00;;;17.10;99.90;;;;;;5075692;28;20202;-70
2021/09/12 01:00:42;;;;;;;3.83;3.00;;;17.20;99.90;;;;;;5075844;28;20201;-70
2021/09/12 01:03:09;;;;;;;3.90;3.50;;;17.20;99.90;;;;;;5075875;28;20293;-70
2021/09/12 01:05:36;;;;;;;5.18;3.70;;;17.20;99.90;;;;;;5075310;28;20731;-70
2021/09/12 01:08:03;;;;;;;4.15;3.75;;;17.20;99.90;;;;;;5075947;28;20203;-70
2021/09/12 01:10:31;;;;;;;3.47;3.17;;;17.20;99.90;;;;;;5075468;28;20300;-71
2021/09/12 01:12:58;;;;;;;3.70;3.20;;;17.20;99.90;;;;;;5075789;28;20558;-70
2021/09/12 01:15:25;;;;;;;3.30;3.00;;;17.10;99.90;;;;;;5075130;28;20314;-70
2021/09/12 01:17:52;;;;;;;3.70;3.05;;;17.10;99.90;;;;;;5075661;28;20206;-71
2021/09/12 01:20:19;;;;;;;3.55;3.25;;;17.10;99.90;;;;;;5075680;28;20202;-70
2021/09/12 01:22:46;;;;;;;3.88;3.30;;;17.00;99.90;;;;;;5075532;28;20198;-71
2021/09/12 01:25:15;;;;;;;4.78;3.60;;;17.00;99.90;;;;;;5075121;28;20297;-70
2021/09/12 01:27:41;;;;;;;5.15;3.60;;;16.90;99.90;;;;;;5075363;28;20206;-70
2021/09/12 01:30:10;;;;;;;4.18;3.78;;;16.90;99.90;;;;;;5075107;28;20241;-70
2021/09/12 01:32:37;;;;;;;4.45;3.60;;;16.90;99.90;;;;;;5075650;28;20258;-70
2021/09/12 01:35:06;;;;;;;4.95;4.40;;;16.80;99.90;;;;;;5074962;28;20202;-70
2021/09/12 01:37:33;;;;;;;3.20;2.90;;;16.80;99.90;;;;;;5075263;28;20564;-70
2021/09/12 01:40:00;;;;;;;4.20;3.70;;;16.80;99.90;;;;;;5075127;28;20731;-70
2021/09/12 01:42:28;;;;;;;4.32;3.60;;;16.80;99.90;;;;;;5075118;28;20289;-70
2021/09/12 01:44:55;;;;;;;4.15;3.67;;;16.70;99.90;;;;;;5074656;28;20221;-70
2021/09/12 01:47:22;;;;;;;4.35;3.08;;;16.70;99.90;;;;;;5074964;28;20229;-70
2021/09/12 01:49:49;;;;;;;3.75;3.45;;;16.70;99.90;;;;;;5074444;28;20545;-70
2021/09/12 01:52:16;;;;;;;3.90;3.38;;;16.70;99.90;;;;;;5074845;28;20226;-70
2021/09/12 01:54:43;;;;;;;4.22;3.80;;;16.60;99.90;;;;;;5074768;28;20297;-70
2021/09/12 01:57:10;;;;;;;6.03;3.53;;;16.60;99.90;;;;;;5074747;28;20592;-70
2021/09/12 01:59:39;;;;;;;3.70;3.35;;;16.70;99.90;;;;;;5074609;28;20206;-70
2021/09/12 02:02:05;;;;;;;4.15;3.75;;;16.70;99.90;;;;;;5074655;28;20290;-70
2021/09/12 02:04:32;;;;;;;4.07;3.67;;;16.60;99.90;;;;;;5074632;28;20234;-70
2021/09/12 02:06:59;;;;;;;3.58;3.25;;;16.70;99.90;;;;;;5074569;28;20222;-70
2021/09/12 02:09:27;;;;;;;4.90;4.03;;;16.70;99.90;;;;;;5075253;28;20216;-70
2021/09/12 02:11:54;;;;;;;3.75;3.38;;;16.70;99.90;;;;;;5074216;28;20226;-70
2021/09/12 02:14:21;;;;;;;4.45;3.50;;;16.70;99.90;;;;;;5074430;28;20238;-70
2021/09/12 02:16:50;;;;;;;3.97;3.58;;;16.60;99.90;;;;;;5073920;28;20731;-70
2021/09/12 02:19:17;;;;;;;4.75;3.35;;;16.70;99.90;;;;;;5074323;28;20206;-70
2021/09/12 02:21:44;;;;;;;4.93;3.70;;;16.70;99.90;;;;;;5074460;28;20210;-70
2021/09/12 02:24:11;;;;;;;3.80;3.50;;;16.70;99.90;;;;;;5074261;28;20293;-70
2021/09/12 02:26:38;;;;;;;3.88;3.58;;;16.60;99.90;;;;;;5074001;28;20712;-70
2021/09/12 02:29:05;;;;;;;4.18;3.08;;;16.60;99.90;;;;;;5074179;28;20201;-70
2021/09/12 02:31:31;;;;;;;3.70;3.08;;;16.50;99.90;;;;;;5074034;28;20236;-70
2021/09/12 02:34:00;;;;;;;3.92;3.45;;;16.50;99.90;;;;;;5074081;28;20208;-70
2021/09/12 02:36:26;;;;;;;4.28;3.47;;;16.40;99.90;;;;;;5073637;28;20231;-70
2021/09/12 02:38:53;;;;;;;4.45;3.63;;;16.30;99.90;;;;;;5073954;28;20668;-70
2021/09/12 02:41:20;;;;;;;4.47;4.00;;;16.20;99.90;;;;;;5073895;28;20233;-70
2021/09/12 02:43:47;;;;;;;4.47;3.60;;;16.10;99.90;;;;;;5073705;28;20243;-70
2021/09/12 02:46:14;;;;;;;4.65;4.25;;;16.10;99.90;;;;;;5073494;28;20307;-70
2021/09/12 02:48:41;;;;;;;3.63;3.20;;;16.10;99.90;;;;;;5073593;28;20214;-70
2021/09/12 02:51:09;;;;;;;4.07;3.67;;;16.00;99.90;;;;;;5073795;28;20201;-71
2021/09/12 02:53:36;;;;;;;5.30;3.45;;;16.10;99.90;;;;;;5073579;28;20668;-71
2021/09/12 02:56:02;;;;;;;3.45;3.15;;;16.10;99.90;;;;;;5073423;28;20222;-70
2021/09/12 02:58:29;;;;;;;3.92;3.53;;;16.20;99.90;;;;;;5073842;28;20244;-70
2021/09/12 03:00:56;;;;;;;3.90;3.35;;;16.10;99.90;;;;;;5072875;28;20257;-70
2021/09/12 03:03:23;;;;;;;3.72;3.33;;;16.10;99.90;;;;;;5073847;28;20249;-70
2021/09/12 03:05:50;;;;;;;4.43;3.45;;;16.20;99.90;;;;;;5073524;28;20236;-70
2021/09/12 03:08:18;;;;;;;5.10;3.97;;;16.20;99.90;;;;;;5073631;28;20207;-70
2021/09/12 03:10:45;;;;;;;4.65;4.13;;;16.20;99.90;;;;;;5073639;28;20232;-70
2021/09/12 03:13:11;;;;;;;4.43;3.67;;;16.20;99.90;;;;;;5073699;28;20325;-70
2021/09/12 03:15:38;;;;;;;4.80;3.25;;;16.20;99.90;;;;;;5073146;28;20269;-71
2021/09/12 03:18:05;;;;;;;4.68;3.55;;;16.20;99.90;;;;;;5073287;28;20221;-71
2021/09/12 03:20:32;;;;;;;3.67;3.33;;;16.30;99.90;;;;;;5073641;28;20213;-71
2021/09/12 03:22:59;;;;;;;4.53;3.95;;;16.20;99.90;;;;;;5073530;28;20568;-70
2021/09/12 03:25:28;;;;;;;3.63;3.28;;;16.10;99.90;;;;;;5073220;28;20316;-71
2021/09/12 03:27:54;;;;;;;4.22;3.47;;;16.20;99.90;;;;;;5073519;28;20208;-70
2021/09/12 03:30:22;;;;;;;3.90;3.50;;;16.10;99.90;;;;;;5073172;28;20209;-71
2021/09/12 03:32:49;;;;;;;4.30;3.80;;;16.20;99.90;;;;;;5073081;28;20690;-70
2021/09/12 03:35:16;;;;;;;4.38;3.60;;;16.20;99.90;;;;;;5073106;28;20202;-70
2021/09/12 03:37:43;;;;;;;5.88;4.35;;;16.20;99.90;;;;;;5073462;28;20570;-70
2021/09/12 03:40:11;;;;;;;5.32;4.03;;;16.10;99.90;;;;;;5073344;28;20208;-70
2021/09/12 03:42:39;;;;;;;5.47;3.60;;;16.00;99.90;;;;;;5073234;28;20201;-70
2021/09/12 03:45:07;;;;;;;3.88;3.55;;;16.00;99.90;;;;;;5073093;28;20210;-70
2021/09/12 03:47:34;;;;;;;4.35;3.70;;;16.10;99.90;;;;;;5073350;28;20625;-70
2021/09/12 03:50:01;;;;;;;4.45;3.90;;;16.10;99.90;;;;;;5073608;28;20232;-70
2021/09/12 03:52:28;;;;;;;4.30;3.90;;;16.00;99.90;;;;;;5073154;28;20336;-70
2021/09/12 03:54:55;;;;;;;6.82;4.88;;;16.00;99.90;;;;;;5073078;28;20296;-70
2021/09/12 03:57:23;;;;;;;5.90;4.60;;;15.90;99.90;;;;;;5073161;28;20231;-70
2021/09/12 03:59:51;;;;;;;4.88;4.38;;;15.80;99.90;;;;;;5073112;28;20208;-70
2021/09/12 04:02:18;;;;;;;5.53;3.92;;;15.80;99.90;;;;;;5073240;28;20309;-70
2021/09/12 04:04:45;;;;;;;3.78;3.42;;;15.80;99.90;;;;;;5072974;28;20570;-70
2021/09/12 04:07:12;;;;;;;4.25;3.85;;;15.80;99.90;;;;;;5072761;28;20740;-70
2021/09/12 04:09:39;;;;;;;5.25;3.45;;;15.80;99.90;;;;;;5073004;28;20202;-70
2021/09/12 04:12:06;;;;;;;6.00;4.28;;;15.90;99.90;;;;;;5073793;28;20221;-70
2021/09/12 04:14:33;;;;;;;4.75;4.32;;;15.90;99.90;;;;;;5076706;28;20296;-70
2021/09/12 04:17:01;;;;;;;4.22;3.85;;;15.90;99.90;;;;;;5076549;28;20673;-70
2021/09/12 04:19:28;;;;;;;4.53;4.10;;;15.90;99.90;;;;;;5076674;28;20210;-70
2021/09/12 04:21:55;;;;;;;4.38;3.80;;;15.90;99.90;;;;;;5076607;28;20300;-70
2021/09/12 04:24:23;;;;;;;4.32;3.88;;;15.90;99.90;;;;;;5076591;28;20214;-70
2021/09/12 04:26:50;;;;;;;4.20;3.90;;;15.80;99.90;;;;;;5076055;28;20230;-70
2021/09/12 04:29:17;;;;;;;4.88;3.78;;;15.80;99.90;;;;;;5076417;28;20292;-71
2021/09/12 04:31:44;;;;;;;4.97;4.10;;;15.80;99.90;;;;;;5076395;28;20652;-71
2021/09/12 04:34:12;;;;;;;4.32;3.90;;;15.80;99.90;;;;;;5076244;28;20756;-70
2021/09/12 04:36:39;;;;;;;4.20;3.80;;;15.80;99.90;;;;;;5075959;28;20564;-70
2021/09/12 04:39:06;;;;;;;4.60;4.07;;;15.80;99.90;;;;;;5076037;28;20297;-71
2021/09/12 04:41:33;;;;;;;5.28;4.32;;;15.70;99.90;;;;;;5076923;28;20300;-70
2021/09/12 04:43:59;;;;;;;6.85;4.25;;;15.60;99.90;;;;;;5076088;28;20220;-70
2021/09/12 04:46:26;;;;;;;3.90;3.30;;;15.50;99.90;;;;;;5076017;28;20232;-70
2021/09/12 04:48:53;;;;;;;4.25;3.85;;;15.60;99.90;;;;;;5075961;28;20210;-70
2021/09/12 04:51:21;;;;;;;5.03;4.00;;;15.60;99.90;;;;;;5076049;28;20753;-70
2021/09/12 04:53:48;;;;;;;4.40;3.80;;;15.70;99.90;;;;;;5075939;28;20317;-71
2021/09/12 04:56:15;;;;;;;7.85;4.28;;;15.60;99.90;;;;;;5075493;28;20729;-70
2021/09/12 04:58:42;;;;;;;4.15;3.70;;;15.60;99.90;;;;;;5075963;28;20274;-70
2021/09/12 05:01:09;;;;;;;4.90;4.05;;;15.60;99.90;;;;;;5075923;28;20206;-70
2021/09/12 05:03:36;;;;;;;4.80;3.75;;;15.60;99.90;;;;;;5075855;28;20202;-70
2021/09/12 05:06:02;;;;;;;5.15;3.85;;;15.70;99.90;;;;;;5075477;28;20229;-70
2021/09/12 05:08:31;;;;;;;4.13;3.70;;;15.70;99.90;;;;;;5075497;28;20238;-70
2021/09/12 05:10:57;;;;;;;5.00;4.20;;;15.70;99.90;;;;;;5075538;28;20324;-70
2021/09/12 05:13:26;;;;;;;4.30;3.85;;;15.70;99.90;;;;;;5075439;28;20258;-70
2021/09/12 05:15:53;;;;;;;4.07;3.67;;;15.70;99.90;;;;;;5075259;28;20230;-71
2021/09/12 05:18:20;;;;;;;4.05;3.40;;;15.70;99.90;;;;;;5075825;28;20212;-70
2021/09/12 05:20:48;;;;;;;4.05;3.63;;;15.60;99.90;;;;;;5075524;28;20256;-70
2021/09/12 05:23:15;;;;;;;5.43;4.20;;;15.60;99.90;;;;;;5074917;28;20204;-70
2021/09/12 05:25:43;;;;;;;4.38;3.97;;;15.70;99.90;;;;;;5074884;28;20321;-70
2021/09/12 05:28:10;;;;;;;5.47;4.60;;;15.70;99.90;;;;;;5075467;28;20209;-70
2021/09/12 05:30:37;;;;;;;4.85;3.63;;;15.70;99.90;;;;;;5075358;28;20233;-71
2021/09/12 05:33:03;;;;;;;5.75;4.60;;;15.60;99.90;;;;;;5075251;28;20248;-70
2021/09/12 05:35:31;;;;;;;4.68;4.13;;;15.60;99.90;;;;;;5074896;28;20226;-71
2021/09/12 05:37:57;;;;;;;5.68;5.07;;;15.60;99.90;;;;;;5075233;28;20589;-70
2021/09/12 05:40:24;;;;;;;4.75;4.07;;;15.60;99.90;;;;;;5074864;28;20297;-70
2021/09/12 05:42:53;;;;;;;4.70;4.28;;;15.60;99.90;;;;;;5074965;28;20289;-71
2021/09/12 05:45:19;;;;;;;4.55;3.80;;;15.60;99.90;;;;;;5075047;28;20219;-70
2021/09/12 05:47:46;;;;;;;4.88;3.78;;;15.60;99.90;;;;;;5074904;28;20668;-71
2021/09/12 05:50:13;;;;;;;5.30;4.25;;;15.70;99.90;;;;;;5074844;28;20248;-71
2021/09/12 05:52:40;;;;;;;5.00;4.18;;;15.70;99.90;;;;;;5074808;28;20226;-71
2021/09/12 05:55:08;;;;;;;5.82;4.63;;;15.70;99.90;;;;;;5074585;28;20578;-70
2021/09/12 05:57:35;;;;;;;4.88;4.32;;;15.70;99.90;;;;;;5074989;28;20201;-70
2021/09/12 06:00:08;;;;;;;6.28;4.65;;;15.50;99.90;;;;;;5074669;28;20212;-70
2021/09/12 06:02:36;;;;;;;5.85;4.43;;;15.50;99.90;;;;;;5074654;28;20297;-70
2021/09/12 06:05:03;;;;;;;5.85;4.20;;;15.60;99.90;;;;;;5074496;28;20622;-71
2021/09/12 06:07:30;;;;;;;5.47;4.80;;;15.60;99.90;;;;;;5074648;28;20259;-70
2021/09/12 06:09:57;;;;;;;4.05;3.65;;;15.70;99.90;;;;;;5074562;28;20209;-71
2021/09/12 06:12:24;;;;;;;4.70;4.30;;;15.80;99.90;;;;;;5074332;28;20320;-70
2021/09/12 06:14:51;;;;;;;4.97;4.43;;;15.80;99.90;;;;;;5074334;28;20229;-71
2021/09/12 06:17:19;;;;;;;4.68;4.25;;;15.90;99.90;;;;;;5074104;28;20587;-70
2021/09/12 06:19:46;;;;;;;5.57;4.15;;;16.00;99.90;;;;;;5074179;28;20703;-70
2021/09/12 06:22:13;;;;;;;5.28;4.70;;;16.00;99.90;;;;;;5074281;28;20210;-70
2021/09/12 06:24:40;;;;;;;5.32;4.75;;;16.10;99.90;;;;;;5074283;28;20209;-71
2021/09/12 06:27:07;;;;;;;4.43;4.03;;;16.10;99.90;;;;;;5074055;28;20253;-70
2021/09/12 06:29:34;;;;;;;6.30;5.03;;;16.10;99.90;;;;;;5074135;28;20242;-70
2021/09/12 06:32:00;;;;;;;4.40;4.00;;;16.10;99.90;;;;;;5074107;28;20241;-70
2021/09/12 06:34:29;;;;;;;7.53;4.93;;;16.10;99.90;;;;;;5074084;28;20392;-70
2021/09/12 06:36:56;;;;;;;5.75;4.88;;;16.10;99.90;;;;;;5073561;28;20224;-70
2021/09/12 06:39:24;;;;;;;5.40;4.60;;;16.00;99.90;;;;;;5074053;28;20206;-70
2021/09/12 06:41:50;;;;;;;6.68;5.22;;;15.90;99.90;;;;;;5073956;28;20297;-70
2021/09/12 06:44:17;;;;;;;6.95;4.97;;;16.00;99.90;;;;;;5073607;28;20600;-70
2021/09/12 06:46:44;;;;;;;6.95;5.60;;;15.90;99.90;;;;;;5074014;28;20226;-70
2021/09/12 06:49:11;;;;;;;6.85;5.05;;;15.90;99.90;;;;;;5073894;28;20216;-70
2021/09/12 06:51:40;;;;;;;6.30;4.70;;;15.90;99.90;;;;;;5073876;28;20230;-70
2021/09/12 06:54:06;;;;;;;7.60;4.97;;;15.90;99.90;;;;;;5073766;28;20236;-70
2021/09/12 06:56:33;;;;;;;6.45;5.07;;;16.00;99.90;;;;;;5073348;28;20313;-70
2021/09/12 06:59:00;;;;;;;7.25;5.75;;;16.00;99.90;;;;;;5073628;28;20210;-70
2021/09/12 07:01:27;;;;;;;6.47;5.60;;;16.10;99.90;;;;;;5073800;28;20209;-70
2021/09/12 07:03:54;;;;;;;6.65;5.22;;;16.10;99.90;;;;;;5073726;28;20608;-70
2021/09/12 07:06:21;;;;;;;7.50;5.75;;;16.10;99.90;;;;;;5073277;28;20318;-70
2021/09/12 07:08:49;;;;;;;6.40;4.93;;;16.10;99.90;;;;;;5073718;28;20296;-70
2021/09/12 07:11:16;;;;;;;6.45;5.75;;;16.10;99.90;;;;;;5073741;28;20201;-70
2021/09/12 07:13:43;;;;;;;7.50;5.57;;;16.00;99.90;;;;;;5073633;28;20316;-70
2021/09/12 07:16:11;;;;;;;6.13;4.78;;;16.00;99.90;;;;;;5073459;28;20561;-70
2021/09/12 07:18:37;;;;;;;6.72;6.03;;;16.10;99.90;;;;;;5073537;28;20209;-70
2021/09/12 07:21:04;;;;;;;7.30;5.20;;;16.00;99.90;;;;;;5073480;28;20198;-70
2021/09/12 07:23:31;;;;;;;7.45;5.68;;;16.00;99.90;;;;;;5073430;28;20664;-70
2021/09/12 07:25:59;;;;;;;7.35;5.50;;;16.00;99.90;;;;;;5073150;28;20316;-70
2021/09/12 07:28:26;;;;;;;7.30;5.80;;;15.90;99.90;;;;;;5073452;28;20201;-70
2021/09/12 07:30:53;;;;;;;6.70;5.32;;;16.00;99.90;;;;;;5073448;28;20212;-70
2021/09/12 07:33:20;;;;;;;6.22;4.38;;;16.00;99.90;;;;;;5073344;28;20225;-70
2021/09/12 07:35:47;;;;;;;7.10;5.90;;;16.10;99.90;;;;;;5073062;28;20225;-70
2021/09/12 07:38:14;;;;;;;7.93;4.95;;;16.20;99.90;;;;;;5073125;28;20210;-70
2021/09/12 07:40:41;;;;;;;5.40;4.63;;;16.20;99.90;;;;;;5073355;28;20212;-70
2021/09/12 07:43:09;;;;;;;6.28;4.47;;;16.30;99.90;;;;;;5073194;28;20241;-70
2021/09/12 07:45:36;;;;;;;7.53;5.30;;;16.30;99.90;;;;;;5073006;28;20221;-70
2021/09/12 07:48:03;;;;;;;6.43;4.60;;;16.40;99.90;;;;;;5075855;28;20205;-70
2021/09/12 07:50:29;;;;;;;5.78;5.18;;;16.40;99.90;;;;;;5077248;28;20205;-70
2021/09/12 07:52:56;;;;;;;5.75;4.68;;;16.50;99.90;;;;;;5077059;28;20223;-70
2021/09/12 07:55:23;;;;;;;5.05;4.40;;;16.60;99.90;;;;;;5077220;28;20207;-70
2021/09/12 07:57:50;;;;;;;5.93;4.40;;;16.70;99.90;;;;;;5077181;28;20229;-70
2021/09/12 08:00:19;;;;;;;5.22;4.72;;;16.80;99.90;;;;;;5077090;28;20209;-70
2021/09/12 08:02:46;;;;;;;4.22;3.83;;;16.80;99.90;;;;;;5076905;28;20202;-70
2021/09/12 08:05:13;;;;;;;5.60;4.20;;;16.90;99.90;;;;;;5076469;28;20207;-71
2021/09/12 08:07:40;;;;;;;5.00;4.30;;;16.90;99.90;;;;;;5076849;28;20213;-70
2021/09/12 08:10:07;;;;;;;5.40;4.55;;;16.90;99.90;;;;;;5076902;28;20212;-70
2021/09/12 08:12:34;;;;;;;4.63;3.95;;;17.00;99.90;;;;;;5077004;28;20203;-70
2021/09/12 08:15:01;;;;;;;4.53;3.67;;;17.00;99.90;;;;;;5076460;28;20296;-70
2021/09/12 08:17:29;;;;;;;4.82;4.20;;;17.00;99.90;;;;;;5076740;28;20316;-70
2021/09/12 08:19:56;;;;;;;5.00;4.50;;;17.00;99.90;;;;;;5076641;28;20201;-70
2021/09/12 08:22:23;;;;;;;4.80;4.30;;;17.10;99.90;;;;;;5076614;28;20203;-70
2021/09/12 08:24:50;;;;;;;4.80;4.40;;;17.20;99.90;;;;;;5076218;28;20294;-70
2021/09/12 08:27:17;;;;;;;5.10;3.90;;;17.30;99.90;;;;;;5076251;28;20704;-70
2021/09/12 08:29:44;;;;;;;5.50;4.47;;;17.40;99.90;;;;;;5076349;28;20752;-70
2021/09/12 08:32:10;;;;;;;5.97;4.22;;;17.50;99.90;;;;;;5076464;28;20294;-70
2021/09/12 08:34:39;;;;;;;5.78;4.43;;;17.50;99.90;;;;;;5076242;28;20226;-70
2021/09/12 08:37:06;;;;;;;4.88;4.45;;;17.60;99.90;;;;;;5076218;28;20233;-70
2021/09/12 08:39:33;;;;;;;5.03;4.43;;;17.70;99.90;;;;;;5076139;28;20564;-70
2021/09/12 08:42:00;;;;;;;5.45;4.25;;;17.70;99.90;;;;;;5076098;28;20234;-70
2021/09/12 08:44:26;;;;;;;5.03;4.45;;;17.70;99.90;;;;;;5076116;28;20228;-70
2021/09/12 08:46:53;;;;;;;5.40;4.82;;;17.80;99.90;;;;;;5075721;28;20222;-70
2021/09/12 08:49:20;;;;;;;4.50;4.03;;;17.80;99.90;;;;;;5076175;28;20209;-70
2021/09/12 08:51:49;;;;;;;4.07;3.67;;;17.90;99.90;;;;;;5075877;28;20297;-70
2021/09/12 08:54:15;;;;;;;4.78;4.05;;;17.90;99.90;;;;;;5076013;28;20223;-70
2021/09/12 08:56:42;;;;;;;5.47;4.13;;;18.00;99.90;;;;;;5075548;28;20314;-70
2021/09/12 08:59:26;;;;;;;4.07;3.67;;;18.00;99.90;;;;;;5074573;28;20202;-70
2021/09/12 09:01:55;;;;;;;4.80;4.30;;;18.10;99.90;;;;;;5075883;28;20404;-71
2021/09/12 09:04:22;;;;;;;4.53;4.13;;;18.20;99.90;;;;;;5075656;28;20206;-70
2021/09/12 09:06:59;;;;;;;4.07;3.70;;;18.20;99.90;;;;;;5075969;28;20233;-70
2021/09/12 09:09:41;;;;;;;3.97;3.58;;;18.20;99.90;;;;;;5075747;28;20676;-70
2021/09/12 09:12:23;;;;;;;4.15;3.75;;;18.30;99.90;;;;;;5075685;28;20679;-70
2021/09/12 09:15:10;;;;;;;4.25;3.85;;;18.40;99.90;;;;;;5075487;28;20304;-70
2021/09/12 09:17:39;;;;;;;4.22;3.83;;;18.50;99.90;;;;;;5075762;28;20571;-70
2021/09/12 09:20:07;;;;;;;4.55;4.15;;;18.70;99.90;;;;;;5075573;28;20202;-70
2021/09/12 09:22:38;;;;;;;3.45;3.15;;;18.80;99.90;;;;;;5075442;28;20683;-71
2021/09/12 09:25:14;;;;;;;3.70;3.35;;;18.90;99.90;;;;;;5075356;28;20205;-71
2021/09/12 09:28:01;;;;;;;4.18;3.47;;;19.10;99.90;;;;;;5076236;28;20546;-70
2021/09/12 09:30:31;;;;;;;4.43;3.90;;;19.10;99.90;;;;;;5075427;28;20203;-71
2021/09/12 09:33:22;;;;;;;4.45;3.38;;;19.10;99.90;;;;;;5075380;28;20203;-70
2021/09/12 09:35:55;;;;;;;3.63;3.33;;;19.10;99.90;;;;;;5075025;28;20224;-71
2021/09/12 09:38:24;;;;;;;3.43;3.13;;;19.10;99.90;;;;;;5075824;28;20206;-70
2021/09/12 09:40:59;;;;;;;3.60;3.30;;;19.10;99.90;;;;;;5075195;28;20437;-70
2021/09/12 09:43:43;;;;;;;3.60;3.30;;;19.00;99.90;;;;;;5074904;28;20206;-71
2021/09/12 09:46:32;;;;;;;3.63;3.28;;;18.80;99.90;;;;;;5074965;28;20584;-70
2021/09/12 09:49:00;;;;;;;4.22;3.70;;;18.70;99.90;;;;;;5074941;28;20220;-70
2021/09/12 09:51:28;;;;;;;3.72;3.35;;;18.70;99.90;;;;;;5074969;28;20228;-70
2021/09/12 09:53:58;;;;;;;3.23;2.90;;;18.80;99.90;;;;;;5074777;28;20310;-70
2021/09/12 09:56:25;;;;;;;3.60;3.30;;;19.50;99.90;;;;;;5074732;28;20524;-70
2021/09/12 09:58:53;;;;;;;3.10;2.67;;;20.20;99.90;;;;;;5074713;28;20450;-70
2021/09/12 10:01:20;;;;;;;3.20;2.90;;;20.40;99.90;;;;;;5074909;28;20442;-70
2021/09/12 10:03:48;;;;;;;3.37;3.07;;;20.70;99.90;;;;;;5074722;28;20531;-70
2021/09/12 10:06:17;;;;;;;2.60;2.40;;;20.70;99.90;;;;;;5074236;28;20468;-70
2021/09/12 10:08:44;;;;;;;2.40;2.20;;;21.10;99.90;;;;;;5074908;28;20447;-71
2021/09/12 10:11:15;;;;;;;2.37;2.17;;;21.10;99.90;;;;;;5074156;28;20444;-70
2021/09/12 10:13:45;;;;;;;2.60;2.40;;;21.40;99.90;;;;;;5074480;28;20473;-70
2021/09/12 10:16:12;;;;;;;2.40;2.20;;;22.00;99.90;;;;;;5074179;28;20559;-71
2021/09/12 10:18:40;;;;;;;2.60;2.40;;;23.10;99.90;;;;;;5074474;28;20853;-71
2021/09/12 10:21:27;;;;;;;2.27;2.10;;;24.70;99.90;;;;;;5074377;28;20452;-71
2021/09/12 10:24:12;;;;;;;2.70;2.50;;;26.40;96.20;;;;;;5074337;28;20856;-71
2021/09/12 10:26:41;;;;;;;2.40;2.27;;;27.30;92.00;;;;;;5073771;28;20540;-71
2021/09/12 10:29:41;;;;;;;1.80;1.70;;;28.20;93.10;;;;;;5074221;28;20443;-71
2021/09/12 10:32:32;;;;;;;2.37;2.27;;;28.70;89.30;;;;;;5074229;28;20462;-71
2021/09/12 10:35:16;;;;;;;2.47;2.37;;;28.90;82.40;;;;;;5073890;28;20491;-71
2021/09/12 10:37:54;;;;;;;2.83;2.63;;;28.90;75.90;;;;;;5073827;28;20530;-71
2021/09/12 10:40:21;;;;;;;3.43;2.53;;;28.50;76.60;;;;;;5073903;28;20535;-70
2021/09/12 10:42:49;;;;;;;2.30;2.20;;;27.80;79.60;;;;;;5073963;28;20443;-71
2021/09/12 10:45:25;;;;;;;2.30;2.20;;;27.10;79.60;;;;;;5073748;28;20452;-70
2021/09/12 10:47:53;;;;;;;2.40;2.30;;;26.10;80.30;;;;;;5074018;28;20443;-71
2021/09/12 10:50:43;;;;;;;2.33;2.10;;;25.10;83.70;;;;;;5074393;28;20474;-70
2021/09/12 10:53:10;;;;;;;2.40;2.20;;;23.90;91.10;;;;;;5073985;28;20932;-70
2021/09/12 10:56:00;;;;;;;2.40;2.20;;;23.70;90.90;;;;;;5073311;28;20494;-70
2021/09/12 10:58:30;;;;;;;2.40;2.20;;;24.20;92.20;;;;;;5073526;28;20925;-70
2021/09/12 11:00:58;;;;;;;2.07;1.97;;;24.20;90.70;;;;;;5073812;28;20545;-71
2021/09/12 11:03:25;;;;;;;2.03;1.90;;;24.60;91.00;;;;;;5073436;28;20443;-71
2021/09/12 11:05:52;;;;;;;3.07;2.30;;;24.60;90.80;;;;;;5073590;28;20468;-71
2021/09/12 11:08:19;;;;;;;2.60;2.40;;;25.10;90.00;;;;;;5073744;28;20449;-71
2021/09/12 11:10:50;;;;;;;1.90;1.80;;;26.50;86.00;;;;;;5073641;28;20785;-71
2021/09/12 11:13:23;;;;;;;2.90;2.70;;;28.00;81.10;;;;;;5073689;28;20447;-71
2021/09/12 11:15:54;;;;;;;2.80;2.60;;;29.30;75.10;;;;;;5073089;28;21013;-71
2021/09/12 11:18:21;;;;;;;3.47;3.17;;;30.10;74.80;;;;;;5073713;28;20803;-71
2021/09/12 11:20:49;;;;;;;2.50;2.30;;;29.90;69.20;;;;;;5073484;28;20447;-71
2021/09/12 11:23:29;;;;;;;2.20;2.10;;;29.50;69.40;;;;;;5072816;28;20447;-71
2021/09/12 11:25:58;;;;;;;1.70;1.60;;;30.00;67.60;;;;;;5073049;28;20472;-71
2021/09/12 11:28:27;;;;;;;2.00;1.90;;;30.20;64.90;;;;;;5073271;28;20890;-71
2021/09/12 11:30:57;;;;;;;2.17;2.07;;;30.90;64.10;;;;;;5073192;28;20438;-71
2021/09/12 11:33:44;;;;;;;2.27;2.07;;;31.10;57.60;;;;;;5073169;28;20510;-71
2021/09/12 11:36:10;;;;;;;2.10;2.00;;;31.20;63.40;;;;;;5073321;28;20472;-71
2021/09/12 11:38:37;;;;;;;2.40;2.20;;;30.50;59.00;;;;;;5073352;28;20954;-71
2021/09/12 11:41:04;;;;;;;2.00;1.90;;;30.70;58.00;;;;;;5073222;28;20950;-71
2021/09/12 11:43:31;;;;;;;2.50;2.10;;;31.10;58.20;;;;;;5073156;28;20480;-71
2021/09/12 11:46:06;;;;;;;2.33;2.23;;;30.20;63.10;;;;;;5073297;28;20544;-71
2021/09/12 11:48:33;;;;;;;2.17;2.07;;;29.10;58.90;;;;;;5073326;28;20427;-71
2021/09/12 11:51:00;;;;;;;2.50;2.30;;;28.30;65.80;;;;;;5073303;28;20443;-71
2021/09/12 11:53:27;;;;;;;2.33;2.13;;;28.00;63.60;;;;;;5073078;28;20961;-71
2021/09/12 11:55:54;;;;;;;2.50;2.30;;;27.60;67.90;;;;;;5072688;28;20491;-71
2021/09/12 11:58:21;;;;;;;2.00;1.90;;;27.30;68.70;;;;;;5073213;28;20540;-71
2021/09/12 12:00:50;;;;;;;2.53;2.33;;;26.80;69.80;;;;;;5073070;28;20953;-71
2021/09/12 12:03:26;;;;;;;2.30;2.10;;;26.50;69.20;;;;;;5073094;28;20492;-71
2021/09/12 12:05:54;;;;;;;2.17;1.97;;;26.00;73.00;;;;;;5072829;28;20547;-71
2021/09/12 12:08:21;;;;;;;2.33;2.13;;;25.60;74.10;;;;;;5072828;28;20449;-70
2021/09/12 12:10:49;;;;;;;2.10;2.00;;;25.30;74.30;;;;;;5073095;28;20798;-70
2021/09/12 12:13:16;;;;;;;2.00;1.90;;;24.90;79.50;;;;;;5072998;28;20454;-71
2021/09/12 12:15:46;;;;;;;2.37;2.17;;;25.00;80.10;;;;;;5072793;28;20571;-70
2021/09/12 12:18:14;;;;;;;2.30;2.20;;;25.00;83.80;;;;;;5072816;28;20449;-70
2021/09/12 12:20:44;;;;;;;2.50;2.30;;;25.00;83.20;;;;;;5072808;28;20440;-70
2021/09/12 12:23:19;;;;;;;2.30;2.10;;;25.00;82.70;;;;;;5072832;28;20477;-70
2021/09/12 12:25:47;;;;;;;3.23;2.37;;;25.10;84.50;;;;;;5072620;28;20460;-71
2021/09/12 12:28:16;;;;;;;2.50;2.30;;;25.20;82.40;;;;;;5072942;28;20506;-71
2021/09/12 12:30:44;;;;;;;2.33;2.23;;;25.20;79.10;;;;;;5072689;28;20941;-71
2021/09/12 12:33:13;;;;;;;2.53;2.33;;;25.10;81.10;;;;;;5073895;28;20797;-71
2021/09/12 12:35:41;;;;;;;2.23;2.13;;;25.10;83.60;;;;;;5075916;28;21024;-70
2021/09/12 12:38:08;;;;;;;2.70;2.50;;;25.20;80.40;;;;;;5076492;28;20445;-71
2021/09/12 12:40:35;;;;;;;2.20;2.10;;;25.20;81.50;;;;;;5076312;28;20527;-70
2021/09/12 12:43:04;;;;;;;2.40;2.20;;;24.70;78.50;;;;;;5076198;28;20460;-71
2021/09/12 12:45:33;;;;;;;3.43;2.80;;;24.30;81.10;;;;;;5075999;28;20890;-71
2021/09/12 12:48:18;;;;;;;2.30;2.10;;;24.30;84.70;;;;;;5076254;28;20444;-71
2021/09/12 12:50:50;;;;;;;2.40;2.20;;;24.50;85.40;;;;;;5076420;28;20436;-71
2021/09/12 12:53:20;;;;;;;2.60;2.50;;;24.70;83.00;;;;;;5075933;28;20449;-70
2021/09/12 12:55:48;;;;;;;2.83;2.63;;;24.80;83.70;;;;;;5075484;28;20495;-71